createdAt,value
2019-01-02T00:01:40.620Z,11.20
2019-01-02T00:04:09.607Z,10.93
2019-01-02T00:06:38.169Z,8.93
2019-01-02T00:09:07.296Z,10.27
2019-01-02T00:11:35.913Z,16.03
2019-01-02T00:14:04.589Z,14.13
2019-01-02T00:16:33.147Z,8.47
2019-01-02T00:19:01.783Z,11.87
2019-01-02T00:21:30.605Z,10.27
2019-01-02T00:23:59.188Z,10.97
2019-01-02T00:26:28.050Z,20.10
2019-01-02T00:28:56.641Z,11.07
2019-01-02T00:31:25.497Z,11.90
2019-01-02T00:33:54.053Z,16.93
2019-01-02T00:36:22.935Z,12.23
2019-01-02T00:38:51.500Z,17.37
2019-01-02T00:41:20.080Z,12.93
2019-01-02T00:43:48.637Z,23.67
2019-01-02T00:46:17.301Z,21.57
2019-01-02T00:48:45.857Z,10.90
2019-01-02T00:51:14.440Z,16.67
2019-01-02T00:53:42.993Z,17.83
2019-01-02T00:56:11.581Z,12.03
2019-01-02T00:58:40.142Z,10.27
2019-01-02T01:01:08.729Z,15.10
2019-01-02T01:03:37.304Z,16.57
2019-01-02T01:06:06.326Z,13.83
2019-01-02T01:08:34.887Z,10.77
2019-01-02T01:11:03.786Z,13.67
2019-01-02T01:13:32.339Z,16.37
2019-01-02T01:16:01.215Z,15.57
2019-01-02T01:18:29.777Z,11.63
2019-01-02T01:20:58.660Z,10.83
2019-01-02T01:23:27.222Z,21.77
2019-01-02T01:25:55.804Z,12.03
2019-01-02T01:28:24.556Z,17.27
2019-01-02T01:30:53.140Z,13.23
2019-01-02T01:33:21.991Z,10.03
2019-01-02T01:35:50.580Z,14.17
2019-01-02T01:38:19.137Z,18.30
2019-01-02T01:40:48.102Z,15.27
2019-01-02T01:43:16.660Z,20.00
2019-01-02T01:45:45.336Z,19.17
2019-01-02T01:48:13.890Z,21.67
2019-01-02T01:50:42.553Z,23.77
2019-01-02T01:53:11.309Z,18.90
2019-01-02T01:55:39.909Z,17.33
2019-01-02T01:58:08.524Z,14.13
2019-01-02T02:00:37.181Z,13.53
2019-01-02T02:03:05.809Z,13.77
2019-01-02T02:05:34.674Z,13.97
2019-01-02T02:08:03.256Z,14.03
2019-01-02T02:10:31.840Z,16.50
2019-01-02T02:13:00.792Z,16.70
2019-01-02T02:15:29.356Z,15.43
2019-01-02T02:17:58.241Z,15.97
2019-01-02T02:20:27.056Z,20.00
2019-01-02T02:22:55.644Z,9.20
2019-01-02T02:25:24.597Z,12.20
2019-01-02T02:27:53.185Z,18.77
2019-01-02T02:30:22.141Z,13.17
2019-01-02T02:32:50.737Z,19.67
2019-01-02T02:35:19.659Z,13.87
2019-01-02T02:37:48.251Z,15.80
2019-01-02T02:40:16.812Z,20.07
2019-01-02T02:42:45.400Z,21.67
2019-01-02T02:45:14.333Z,19.10
2019-01-02T02:47:43.190Z,17.50
2019-01-02T02:50:13.987Z,17.23
2019-01-02T02:52:42.576Z,15.33
2019-01-02T02:55:13.682Z,20.57
2019-01-02T02:57:42.271Z,17.93
2019-01-02T03:00:16.116Z,21.20
2019-01-02T03:02:44.764Z,16.07
2019-01-02T03:05:15.056Z,21.33
2019-01-02T03:07:44.007Z,30.40
2019-01-02T03:10:14.905Z,19.97
2019-01-02T03:12:43.783Z,21.33
2019-01-02T03:15:12.809Z,16.03
2019-01-02T03:17:41.464Z,19.53
2019-01-02T03:20:16.348Z,23.40
2019-01-02T03:22:45.106Z,20.13
2019-01-02T03:25:14.605Z,22.50
2019-01-02T03:27:43.460Z,22.20
2019-01-02T03:30:14.686Z,30.03
2019-01-02T03:32:43.640Z,16.80
2019-01-02T03:35:12.598Z,23.90
2019-01-02T03:37:41.155Z,18.20
2019-01-02T03:40:11.683Z,25.80
2019-01-02T03:42:40.329Z,26.60
2019-01-02T03:45:11.828Z,24.20
2019-01-02T03:47:40.524Z,16.43
2019-01-02T03:50:12.250Z,15.43
2019-01-02T03:52:40.881Z,19.03
2019-01-02T03:55:10.300Z,15.13
2019-01-02T03:57:38.930Z,14.80
2019-01-02T04:00:13.561Z,16.77
2019-01-02T04:02:42.190Z,16.67
2019-01-02T04:05:16.236Z,15.53
2019-01-02T04:07:48.037Z,19.97
2019-01-02T04:10:16.765Z,18.10
2019-01-02T04:12:45.308Z,19.57
2019-01-02T04:15:13.965Z,17.83
2019-01-02T04:17:42.521Z,21.63
2019-01-02T04:20:11.108Z,19.93
2019-01-02T04:22:39.665Z,20.10
2019-01-02T04:25:08.989Z,23.17
2019-01-02T04:27:37.544Z,24.60
2019-01-02T04:30:14.079Z,25.57
2019-01-02T04:32:42.632Z,15.90
2019-01-02T04:35:11.189Z,22.17
2019-01-02T04:37:39.839Z,20.23
2019-01-02T04:40:10.845Z,16.93
2019-01-02T04:42:39.437Z,20.90
2019-01-02T04:45:10.131Z,22.13
2019-01-02T04:47:38.780Z,22.90
2019-01-02T04:50:09.982Z,27.73
2019-01-02T04:52:38.564Z,22.83
2019-01-02T04:55:07.199Z,21.57
2019-01-02T04:57:35.860Z,21.73
2019-01-02T05:00:07.481Z,29.53
2019-01-02T05:02:36.079Z,21.83
2019-01-02T05:05:05.468Z,23.67
2019-01-02T05:07:34.058Z,23.50
2019-01-02T05:10:02.605Z,23.90
2019-01-02T05:12:31.193Z,16.43
2019-01-02T05:14:59.747Z,18.00
2019-01-02T05:17:28.338Z,22.30
2019-01-02T05:19:56.885Z,23.00
2019-01-02T05:22:25.474Z,18.13
2019-01-02T05:25:01.374Z,15.83
2019-01-02T05:27:29.658Z,14.60
2019-01-02T05:29:58.216Z,19.17
2019-01-02T05:32:26.813Z,21.00
2019-01-02T05:34:55.373Z,21.03
2019-01-02T05:37:23.968Z,12.80
2019-01-02T05:39:52.524Z,27.53
2019-01-02T05:42:21.110Z,20.20
2019-01-02T05:44:49.660Z,47.60
2019-01-02T05:47:18.255Z,50.87
2019-01-02T05:49:46.813Z,56.00
2019-01-02T05:52:15.401Z,33.47
2019-01-02T05:54:43.966Z,31.53
2019-01-02T05:57:12.554Z,39.03
2019-01-02T05:59:41.116Z,42.23
2019-01-02T06:02:09.710Z,30.80
2019-01-02T06:04:38.260Z,30.53
2019-01-02T06:07:06.849Z,29.07
2019-01-02T06:09:35.410Z,31.37
2019-01-02T06:12:03.997Z,28.40
2019-01-02T06:14:32.560Z,23.00
2019-01-02T06:17:01.155Z,26.87
2019-01-02T06:19:29.707Z,23.40
2019-01-02T06:21:58.276Z,19.80
2019-01-02T06:24:26.858Z,18.70
2019-01-02T06:26:55.422Z,21.23
2019-01-02T06:29:24.004Z,24.33
2019-01-02T06:31:52.560Z,23.30
2019-01-02T06:34:21.148Z,19.97
2019-01-02T06:36:49.711Z,26.70
2019-01-02T06:39:18.301Z,25.67
2019-01-02T06:41:46.859Z,22.70
2019-01-02T06:44:15.440Z,20.47
2019-01-02T06:46:43.997Z,21.17
2019-01-02T06:49:12.585Z,26.20
2019-01-02T06:51:41.139Z,25.07
2019-01-02T06:54:09.733Z,34.80
2019-01-02T06:56:38.284Z,33.47
2019-01-02T06:59:06.864Z,22.33
2019-01-02T07:01:35.421Z,23.23
2019-01-02T07:04:04.081Z,28.57
2019-01-02T07:06:32.632Z,23.93
2019-01-02T07:09:01.220Z,22.37
2019-01-02T07:11:29.782Z,20.27
2019-01-02T07:13:58.373Z,24.43
2019-01-02T07:16:26.929Z,19.43
2019-01-02T07:18:55.512Z,23.93
2019-01-02T07:21:24.068Z,22.17
2019-01-02T07:23:52.732Z,18.60
2019-01-02T07:26:21.291Z,21.40
2019-01-02T07:28:49.849Z,21.27
2019-01-02T07:31:18.436Z,17.40
2019-01-02T07:33:50.061Z,16.30
2019-01-02T07:36:42.272Z,19.13
2019-01-02T07:39:19.671Z,23.97
2019-01-02T07:41:57.212Z,24.60
2019-01-02T07:44:37.429Z,19.30
2019-01-02T07:47:28.182Z,18.67
2019-01-02T07:50:19.251Z,19.23
2019-01-02T07:53:11.501Z,21.43
2019-01-02T07:55:59.547Z,25.37
2019-01-02T07:58:55.101Z,25.27
2019-01-02T08:01:35.570Z,29.33
2019-01-02T08:04:33.492Z,21.27
2019-01-02T08:07:21.429Z,18.23
2019-01-02T08:10:01.758Z,15.23
2019-01-02T08:12:33.384Z,22.57
2019-01-02T08:15:21.026Z,22.17
2019-01-02T08:17:55.252Z,28.07
2019-01-02T08:20:32.788Z,21.63
2019-01-02T08:23:25.424Z,21.20
2019-01-02T08:26:19.088Z,21.30
2019-01-02T08:29:02.103Z,19.27
2019-01-02T08:31:42.319Z,22.07
2019-01-02T08:34:28.909Z,18.57
2019-01-02T08:37:21.452Z,24.10
2019-01-02T08:40:04.732Z,36.20
2019-01-02T08:42:45.429Z,24.33
2019-01-02T08:45:40.833Z,25.03
2019-01-02T08:48:15.435Z,25.73
2019-01-02T08:51:13.884Z,19.37
2019-01-02T08:53:56.875Z,22.93
2019-01-02T08:56:56.548Z,13.63
2019-01-02T08:59:39.862Z,21.47
2019-01-02T09:02:27.897Z,25.60
2019-01-02T09:05:20.581Z,28.53
2019-01-02T09:08:03.793Z,22.20
2019-01-02T09:10:59.333Z,24.47
2019-01-02T09:13:49.970Z,30.00
2019-01-02T09:16:40.640Z,25.47
2019-01-02T09:19:24.216Z,26.93
2019-01-02T09:21:55.886Z,23.73
2019-01-02T09:24:33.172Z,21.53
2019-01-02T09:27:33.069Z,20.03
2019-01-02T09:30:04.699Z,18.43
2019-01-02T09:32:48.089Z,24.10
2019-01-02T09:35:47.870Z,25.00
2019-01-02T09:38:34.442Z,24.87
2019-01-02T09:41:11.847Z,26.40
2019-01-02T09:43:43.520Z,27.43
2019-01-02T09:46:15.142Z,22.20
2019-01-02T09:48:52.503Z,23.67
2019-01-02T09:51:45.129Z,27.07
2019-01-02T09:54:33.127Z,33.57
2019-01-02T09:57:20.791Z,20.40
2019-01-02T09:59:58.124Z,18.77
2019-01-02T10:02:41.828Z,19.33
2019-01-02T10:05:28.076Z,23.83
2019-01-02T10:08:05.316Z,21.03
2019-01-02T10:10:45.338Z,18.13
2019-01-02T10:13:25.598Z,23.50
2019-01-02T10:16:22.582Z,24.57
2019-01-02T10:19:03.230Z,24.33
2019-01-02T10:21:43.920Z,25.30
2019-01-02T10:24:18.476Z,19.83
2019-01-02T10:27:01.741Z,19.40
2019-01-02T10:29:49.601Z,22.63
2019-01-02T10:32:33.221Z,25.37
2019-01-02T10:35:21.172Z,21.40
2019-01-02T10:37:52.832Z,22.27
2019-01-02T10:40:30.167Z,19.07
2019-01-02T10:43:01.837Z,26.20
2019-01-02T10:45:38.839Z,23.57
2019-01-02T10:48:27.766Z,16.57
2019-01-02T10:51:07.959Z,24.63
2019-01-02T10:53:45.407Z,22.57
2019-01-02T10:56:19.632Z,23.83
2019-01-02T10:59:18.128Z,19.57
2019-01-02T11:02:08.856Z,26.97
2019-01-02T11:04:46.023Z,25.57
2019-01-02T11:07:29.212Z,22.10
2019-01-02T11:10:03.670Z,20.00
2019-01-02T11:12:44.293Z,18.00
2019-01-02T11:15:50.280Z,21.90
2019-01-02T11:18:38.149Z,25.30
2019-01-02T11:21:35.164Z,27.30
2019-01-02T11:24:33.651Z,18.73
2019-01-02T11:27:39.822Z,15.63
2019-01-02T11:30:42.994Z,21.53
2019-01-02T11:33:29.255Z,29.77
2019-01-02T11:36:01.755Z,21.30
2019-01-02T11:38:36.382Z,25.43
2019-01-02T11:41:10.928Z,21.97
2019-01-02T11:44:07.833Z,21.27
2019-01-02T11:46:36.390Z,25.13
2019-01-02T11:49:05.048Z,17.90
2019-01-02T11:51:33.608Z,23.60
2019-01-02T11:54:02.213Z,18.87
2019-01-02T11:56:30.836Z,19.30
2019-01-02T11:58:59.429Z,15.80
2019-01-02T12:01:27.985Z,21.60
2019-01-02T12:03:56.568Z,22.40
2019-01-02T12:06:25.128Z,14.13
2019-01-02T12:08:53.718Z,18.57
2019-01-02T12:11:22.339Z,16.33
2019-01-02T12:13:50.932Z,18.80
2019-01-02T12:16:19.498Z,16.13
2019-01-02T12:18:48.049Z,15.63
2019-01-02T12:21:16.643Z,21.73
2019-01-02T12:23:45.220Z,15.73
2019-01-02T12:26:13.814Z,21.00
2019-01-02T12:28:42.370Z,17.47
2019-01-02T12:31:11.024Z,20.77
2019-01-02T12:33:39.584Z,19.40
2019-01-02T12:36:08.213Z,16.83
2019-01-02T12:38:36.739Z,14.73
2019-01-02T12:41:05.319Z,21.43
2019-01-02T12:43:33.880Z,23.13
2019-01-02T12:46:02.533Z,22.00
2019-01-02T12:48:31.094Z,20.80
2019-01-02T12:50:59.680Z,17.53
2019-01-02T12:53:28.244Z,17.03
2019-01-02T12:55:56.904Z,14.73
2019-01-02T12:58:25.467Z,19.57
2019-01-02T13:00:56.760Z,18.50
2019-01-02T13:03:28.405Z,18.20
2019-01-02T13:06:18.179Z,21.60
2019-01-02T13:09:01.353Z,21.73
2019-01-02T13:11:53.646Z,19.97
2019-01-02T13:14:30.800Z,26.10
2019-01-02T13:17:20.078Z,14.60
2019-01-02T13:20:03.031Z,19.93
2019-01-02T13:22:52.449Z,19.43
2019-01-02T13:25:24.076Z,19.13
2019-01-02T13:27:55.744Z,14.17
2019-01-02T13:30:39.374Z,22.53
2019-01-02T13:33:13.520Z,14.70
2019-01-02T13:36:03.092Z,16.97
2019-01-02T13:38:34.716Z,14.53
2019-01-02T13:41:09.122Z,15.50
2019-01-02T13:43:43.452Z,12.13
2019-01-02T13:46:20.884Z,12.27
2019-01-02T13:49:27.881Z,15.90
2019-01-02T13:51:56.481Z,15.97
2019-01-02T13:54:25.036Z,15.77
2019-01-02T13:56:53.619Z,15.43
2019-01-02T13:59:22.179Z,9.57
2019-01-02T14:01:50.770Z,14.77
2019-01-02T14:04:19.318Z,22.63
2019-01-02T14:06:47.896Z,14.53
2019-01-02T14:09:16.520Z,16.70
2019-01-02T14:11:45.111Z,16.87
2019-01-02T14:14:13.678Z,21.60
2019-01-02T14:16:42.260Z,12.90
2019-01-02T14:19:10.820Z,13.80
2019-01-02T14:21:39.412Z,18.50
2019-01-02T14:24:07.973Z,18.00
2019-01-02T14:26:36.536Z,12.93
2019-01-02T14:29:05.130Z,15.70
2019-01-02T14:31:38.648Z,12.70
2019-01-02T14:34:03.992Z,12.53
2019-01-02T14:36:32.542Z,16.30
2019-01-02T14:39:01.125Z,11.27
2019-01-02T14:41:29.681Z,20.80
2019-01-02T14:43:58.277Z,27.20
2019-01-02T14:46:26.841Z,14.57
2019-01-02T14:48:55.416Z,21.33
2019-01-02T14:51:23.982Z,15.20
2019-01-02T14:53:52.567Z,21.00
2019-01-02T14:56:21.123Z,15.73
2019-01-02T14:58:49.708Z,14.97
2019-01-02T15:01:18.261Z,14.00
2019-01-02T15:03:46.850Z,14.67
2019-01-02T15:06:15.400Z,9.30
2019-01-02T15:08:43.984Z,16.10
2019-01-02T15:11:12.540Z,13.93
2019-01-02T15:13:41.132Z,16.77
2019-01-02T15:16:09.706Z,13.60
2019-01-02T15:18:38.284Z,19.77
2019-01-02T15:21:06.845Z,15.13
2019-01-02T15:23:35.447Z,19.23
2019-01-02T15:26:04.068Z,13.07
2019-01-02T15:28:32.652Z,15.63
2019-01-02T15:31:01.209Z,12.73
2019-01-02T15:33:29.792Z,16.57
2019-01-02T15:35:58.346Z,17.97
2019-01-02T15:38:26.943Z,18.27
2019-01-02T15:40:55.501Z,14.87
2019-01-02T15:43:24.091Z,11.97
2019-01-02T15:45:52.647Z,15.93
2019-01-02T15:48:21.206Z,19.43
2019-01-02T15:50:49.865Z,16.87
2019-01-02T15:53:18.428Z,15.77
2019-01-02T15:55:47.018Z,17.17
2019-01-02T15:58:15.572Z,20.17
2019-01-02T16:00:44.224Z,14.67
2019-01-02T16:03:12.783Z,38.80
2019-01-02T16:05:41.376Z,18.30
2019-01-02T16:08:09.937Z,17.13
2019-01-02T16:10:38.521Z,22.93
2019-01-02T16:13:07.084Z,23.47
2019-01-02T16:15:35.664Z,23.33
2019-01-02T16:18:04.220Z,16.33
2019-01-02T16:20:32.814Z,15.07
2019-01-02T16:23:01.436Z,14.77
2019-01-02T16:25:30.025Z,17.87
2019-01-02T16:27:58.584Z,14.77
2019-01-02T16:30:27.173Z,18.23
2019-01-02T16:32:55.731Z,19.10
2019-01-02T16:35:24.316Z,21.57
2019-01-02T16:37:52.871Z,20.53
2019-01-02T16:40:21.459Z,22.90
2019-01-02T16:42:50.013Z,23.23
2019-01-02T16:45:18.596Z,20.10
2019-01-02T16:47:47.153Z,21.03
2019-01-02T16:50:15.740Z,20.13
2019-01-02T16:52:44.292Z,24.03
2019-01-02T16:55:12.881Z,24.57
2019-01-02T16:57:41.438Z,19.07
2019-01-02T17:00:12.737Z,19.53
2019-01-02T17:02:41.294Z,22.63
2019-01-02T17:05:09.927Z,22.47
2019-01-02T17:07:38.509Z,20.90
2019-01-02T17:10:10.116Z,18.60
2019-01-02T17:12:38.697Z,20.67
2019-01-02T17:15:08.093Z,19.00
2019-01-02T17:17:36.681Z,21.80
2019-01-02T17:20:07.774Z,18.03
2019-01-02T17:22:36.372Z,17.40
2019-01-02T17:25:06.878Z,21.53
2019-01-02T17:27:35.507Z,19.60
2019-01-02T17:30:05.303Z,17.43
2019-01-02T17:32:33.892Z,19.93
2019-01-02T17:35:02.524Z,15.37
2019-01-02T17:37:31.114Z,22.60
2019-01-02T17:39:59.696Z,21.63
2019-01-02T17:42:28.294Z,21.12
2019-01-02T17:44:56.840Z,20.60
2019-01-02T17:47:25.434Z,15.40
2019-01-02T17:49:53.993Z,18.17
2019-01-02T17:52:22.581Z,22.77
2019-01-02T17:54:51.150Z,15.83
2019-01-02T17:57:19.818Z,18.17
2019-01-02T17:59:48.367Z,20.63
2019-01-02T18:02:16.954Z,26.53
2019-01-02T18:04:45.517Z,19.10
2019-01-02T18:07:14.113Z,22.80
2019-01-02T18:09:42.676Z,23.20
2019-01-02T18:12:11.285Z,21.68
2019-01-02T18:14:39.840Z,38.55
2019-01-02T18:17:08.433Z,71.20
2019-01-02T18:19:37.076Z,95.70
2019-01-02T18:22:05.742Z,81.60
2019-01-02T18:24:34.309Z,75.67
2019-01-02T18:27:02.910Z,60.23
2019-01-02T18:29:31.474Z,42.17
2019-01-02T18:32:00.066Z,33.08
2019-01-02T18:34:28.658Z,31.97
2019-01-02T18:36:57.229Z,24.55
2019-01-02T18:39:25.826Z,31.77
2019-01-02T18:41:54.402Z,60.40
2019-01-02T18:44:22.992Z,36.42
2019-01-02T18:46:51.559Z,42.57
2019-01-02T18:49:20.157Z,27.93
2019-01-02T18:51:48.712Z,25.20
2019-01-02T18:54:17.305Z,25.90
2019-01-02T18:56:45.870Z,31.30
2019-01-02T18:59:14.456Z,25.45
2019-01-02T19:01:43.021Z,28.02
2019-01-02T19:04:11.657Z,37.95
2019-01-02T19:06:40.226Z,32.80
2019-01-02T19:09:08.974Z,30.85
2019-01-02T19:11:38.753Z,36.05
2019-01-02T19:14:07.329Z,36.75
2019-01-02T19:16:35.964Z,39.18
2019-01-02T19:19:04.577Z,41.30
2019-01-02T19:21:33.144Z,43.15
2019-01-02T19:24:01.736Z,44.53
2019-01-02T19:26:30.301Z,40.12
2019-01-02T19:28:58.912Z,43.80
2019-01-02T19:31:27.480Z,29.52
2019-01-02T19:33:56.069Z,21.97
2019-01-02T19:36:24.645Z,29.18
2019-01-02T19:38:53.484Z,32.83
2019-01-02T19:41:22.045Z,34.27
2019-01-02T19:43:50.969Z,32.88
2019-01-02T19:46:19.551Z,21.17
2019-01-02T19:48:48.136Z,25.35
2019-01-02T19:51:16.704Z,27.98
2019-01-02T19:53:45.304Z,21.90
2019-01-02T19:56:13.860Z,22.37
2019-01-02T19:58:42.428Z,23.60
2019-01-02T20:01:11.027Z,26.95
2019-01-02T20:03:39.576Z,22.48
2019-01-02T20:06:08.166Z,27.45
2019-01-02T20:08:36.724Z,20.88
2019-01-02T20:11:05.314Z,25.62
2019-01-02T20:13:33.867Z,23.65
2019-01-02T20:16:02.459Z,21.17
2019-01-02T20:18:31.021Z,18.62
2019-01-02T20:20:59.672Z,26.95
2019-01-02T20:23:28.228Z,22.77
2019-01-02T20:25:56.813Z,24.18
2019-01-02T20:28:25.377Z,24.37
2019-01-02T20:30:54.139Z,20.90
2019-01-02T20:33:22.696Z,22.42
2019-01-02T20:35:51.276Z,23.30
2019-01-02T20:38:19.836Z,26.20
2019-01-02T20:40:48.452Z,26.95
2019-01-02T20:43:16.976Z,23.00
2019-01-02T20:45:45.577Z,21.25
2019-01-02T20:48:14.154Z,20.20
2019-01-02T20:50:42.713Z,19.52
2019-01-02T20:53:11.279Z,26.95
2019-01-02T20:55:39.860Z,26.30
2019-01-02T20:58:08.420Z,24.75
2019-01-02T21:00:37.010Z,21.25
2019-01-02T21:03:05.567Z,25.00
2019-01-02T21:05:34.163Z,28.35
2019-01-02T21:08:02.718Z,18.37
2019-01-02T21:10:31.305Z,26.52
2019-01-02T21:12:59.928Z,28.38
2019-01-02T21:15:28.564Z,25.08
2019-01-02T21:17:57.102Z,21.20
2019-01-02T21:20:25.793Z,34.53
2019-01-02T21:22:54.351Z,21.45
2019-01-02T21:25:22.940Z,25.77
2019-01-02T21:27:51.508Z,33.53
2019-01-02T21:30:20.060Z,31.90
2019-01-02T21:32:48.724Z,27.45
2019-01-02T21:35:17.275Z,34.23
2019-01-02T21:37:45.860Z,26.87
2019-01-02T21:40:14.408Z,22.80
2019-01-02T21:42:43.004Z,21.15
2019-01-02T21:45:11.637Z,22.40
2019-01-02T21:47:40.225Z,21.50
2019-01-02T21:50:09.217Z,20.35
2019-01-02T21:52:37.804Z,18.65
2019-01-02T21:55:07.306Z,19.05
2019-01-02T21:57:35.888Z,23.30
2019-01-02T22:00:08.359Z,23.77
2019-01-02T22:02:40.322Z,23.50
2019-01-02T22:05:07.216Z,20.68
2019-01-02T22:07:35.798Z,22.98
2019-01-02T22:10:06.587Z,22.05
2019-01-02T22:12:35.235Z,21.20
2019-01-02T22:15:04.224Z,18.73
2019-01-02T22:17:32.824Z,31.50
2019-01-02T22:20:01.384Z,36.17
2019-01-02T22:22:29.974Z,38.35
2019-01-02T22:24:58.536Z,36.00
2019-01-02T22:27:27.128Z,29.02
2019-01-02T22:29:55.756Z,34.38
2019-01-02T22:32:24.349Z,32.55
2019-01-02T22:34:52.905Z,22.07
2019-01-02T22:37:21.485Z,19.20
2019-01-02T22:39:50.044Z,22.85
2019-01-02T22:42:18.637Z,25.02
2019-01-02T22:44:47.190Z,20.23
2019-01-02T22:47:15.785Z,22.37
2019-01-02T22:49:44.337Z,18.37
2019-01-02T22:52:12.912Z,21.57
2019-01-02T22:54:41.482Z,20.68
2019-01-02T22:57:10.020Z,21.48
2019-01-02T22:59:38.613Z,21.07
2019-01-02T23:02:08.778Z,17.75
2019-01-02T23:04:54.777Z,24.15
2019-01-02T23:07:40.824Z,21.68
2019-01-02T23:10:11.017Z,15.60
2019-01-02T23:12:57.464Z,26.62
2019-01-02T23:15:30.615Z,16.20
2019-01-02T23:18:06.804Z,15.08
2019-01-02T23:20:37.009Z,18.40
2019-01-02T23:23:16.183Z,18.90
2019-01-02T23:25:46.380Z,19.87
2019-01-02T23:28:16.610Z,27.00
2019-01-02T23:30:49.755Z,37.23
2019-01-02T23:33:38.045Z,26.27
2019-01-02T23:36:10.796Z,22.13
2019-01-02T23:38:56.984Z,19.25
2019-01-02T23:41:43.169Z,17.85
2019-01-02T23:44:19.093Z,20.43
2019-01-02T23:46:49.289Z,22.93
2019-01-02T23:49:35.941Z,20.62
2019-01-02T23:52:06.201Z,21.30
2019-01-02T23:54:42.423Z,22.95
2019-01-02T23:57:12.688Z,20.70
2019-01-02T23:59:48.980Z,16.67
